Time;durP1;ratioP1;P1;durP2;ratioP2;P2;SDS_P1;SDS_P2;PMS_P1;PMS_P2;Temp;Humidity;BMP_temperature;BMP_pressure;BME280_temperature;BME280_humidity;BME280_pressure;Samples;Min_cycle;Max_cycle;Signal;HPM_P1;HPM_P2
2021/06/21 00:01:25;;;;;;;19.07;17.17;;;19.20;99.90;;;;;;5093878;28;20203;-79
2021/06/21 00:03:51;;;;;;;21.50;19.47;;;19.10;99.90;;;;;;5093088;28;20169;-78
2021/06/21 00:06:20;;;;;;;20.77;18.63;;;19.10;99.90;;;;;;5095729;28;20233;-78
2021/06/21 00:08:46;;;;;;;21.47;19.27;;;19.20;99.90;;;;;;5097575;28;20156;-79
2021/06/21 00:11:13;;;;;;;21.07;18.80;;;19.10;99.90;;;;;;5097850;28;20679;-78
2021/06/21 00:13:38;;;;;;;20.00;17.97;;;19.00;99.90;;;;;;5097140;28;20203;-77
2021/06/21 00:16:04;;;;;;;22.20;19.97;;;19.00;99.90;;;;;;5097081;28;20183;-78
2021/06/21 00:18:30;;;;;;;21.50;19.30;;;19.00;99.90;;;;;;5097240;28;20164;-78
2021/06/21 00:20:56;;;;;;;23.37;20.67;;;19.00;99.90;;;;;;5096737;28;20211;-78
2021/06/21 00:23:22;;;;;;;22.93;19.53;;;18.90;99.90;;;;;;5095849;28;20555;-78
2021/06/21 00:25:48;;;;;;;22.20;19.97;;;18.90;99.90;;;;;;5095842;28;20244;-77
2021/06/21 00:28:15;;;;;;;23.63;21.23;;;18.90;99.90;;;;;;5096465;28;20200;-76
2021/06/21 00:30:41;;;;;;;24.20;21.40;;;19.00;99.90;;;;;;5096253;28;20231;-78
2021/06/21 00:33:06;;;;;;;24.20;21.70;;;19.00;99.90;;;;;;5097084;28;20175;-78
2021/06/21 00:35:33;;;;;;;23.07;20.50;;;19.00;99.90;;;;;;5096827;28;20237;-78
2021/06/21 00:37:58;;;;;;;23.50;21.00;;;19.00;99.90;;;;;;5097951;28;20168;-78
2021/06/21 00:40:24;;;;;;;23.83;21.47;;;18.90;99.90;;;;;;5095079;28;20241;-78
2021/06/21 00:42:51;;;;;;;24.23;21.73;;;18.90;99.90;;;;;;5097516;28;20183;-76
2021/06/21 00:45:20;;;;;;;22.87;20.60;;;18.90;99.90;;;;;;5095015;28;20687;-77
2021/06/21 00:47:46;;;;;;;25.53;21.97;;;19.00;99.90;;;;;;5096230;28;20175;-77
2021/06/21 00:50:13;;;;;;;23.40;20.47;;;19.00;99.90;;;;;;5106553;28;20577;-76
2021/06/21 00:52:38;;;;;;;25.60;21.70;;;19.00;99.90;;;;;;5111232;28;20194;-77
2021/06/21 00:55:05;;;;;;;24.80;22.30;;;19.00;99.90;;;;;;5113711;28;20207;-77
2021/06/21 00:57:34;;;;;;;23.57;21.27;;;19.00;99.90;;;;;;5114048;28;20179;-77
2021/06/21 01:00:03;;;;;;;23.30;21.07;;;19.20;99.90;;;;;;5115062;28;20214;-77
2021/06/21 01:02:29;;;;;;;22.80;20.60;;;19.00;99.90;;;;;;5115771;28;20187;-78
2021/06/21 01:04:56;;;;;;;23.57;21.17;;;19.10;99.90;;;;;;5103314;28;20595;-78
2021/06/21 01:07:22;;;;;;;23.80;21.47;;;19.00;99.90;;;;;;5097726;28;20172;-76
2021/06/21 01:09:50;;;;;;;23.27;20.93;;;19.00;99.90;;;;;;5097393;28;20164;-78
2021/06/21 01:12:30;;;;;;;23.10;20.90;;;19.00;99.90;;;;;;5097522;28;20195;-77
2021/06/21 01:15:06;;;;;;;24.00;21.50;;;18.90;99.90;;;;;;5095082;28;20166;-77
2021/06/21 01:17:37;;;;;;;24.33;21.90;;;18.90;99.90;;;;;;5095109;28;20637;-76
2021/06/21 01:20:21;;;;;;;23.60;21.10;;;18.80;99.90;;;;;;5093833;28;20215;-77
2021/06/21 01:22:53;;;;;;;24.40;22.03;;;18.70;99.90;;;;;;5095245;28;20179;-77
2021/06/21 01:25:37;;;;;;;24.57;22.00;;;18.70;99.90;;;;;;5094983;28;20164;-77
2021/06/21 01:28:24;;;;;;;23.97;21.50;;;18.70;99.90;;;;;;5094409;28;20643;-77
2021/06/21 01:31:09;;;;;;;25.33;22.40;;;18.70;99.90;;;;;;5096018;28;20195;-77
2021/06/21 01:33:36;;;;;;;23.37;21.07;;;18.70;99.90;;;;;;5096111;28;20167;-77
2021/06/21 01:36:06;;;;;;;22.93;20.53;;;18.60;99.90;;;;;;5094655;28;20638;-78
2021/06/21 01:38:44;;;;;;;23.40;21.00;;;18.60;99.90;;;;;;5096586;28;20164;-78
2021/06/21 01:41:15;;;;;;;23.23;21.03;;;18.60;99.90;;;;;;5094892;28;20207;-77
2021/06/21 01:43:43;;;;;;;23.90;21.50;;;18.60;99.90;;;;;;5095092;28;20624;-77
2021/06/21 01:46:12;;;;;;;23.63;21.43;;;18.60;99.90;;;;;;5095313;28;20168;-79
2021/06/21 01:48:46;;;;;;;23.87;21.57;;;18.60;99.90;;;;;;5095285;28;20159;-78
2021/06/21 01:51:12;;;;;;;22.50;20.33;;;18.50;99.90;;;;;;5094008;28;20200;-77
2021/06/21 01:53:39;;;;;;;20.73;18.83;;;18.50;99.90;;;;;;5095128;28;20168;-78
2021/06/21 01:56:11;;;;;;;21.40;19.40;;;18.50;99.90;;;;;;5096050;28;20161;-78
2021/06/21 01:58:39;;;;;;;21.63;19.53;;;18.50;99.90;;;;;;5095849;28;20619;-79
2021/06/21 02:01:14;;;;;;;19.93;18.03;;;18.50;99.90;;;;;;5095197;28;20685;-78
2021/06/21 02:03:45;;;;;;;19.37;17.57;;;18.50;99.90;;;;;;5095183;28;20204;-79
2021/06/21 02:06:12;;;;;;;20.33;18.43;;;18.40;99.90;;;;;;5093760;28;20178;-78
2021/06/21 02:08:42;;;;;;;20.03;18.03;;;18.40;99.90;;;;;;5093729;28;20552;-80
2021/06/21 02:11:10;;;;;;;18.83;16.93;;;18.40;99.90;;;;;;5093613;28;20318;-78
2021/06/21 02:13:36;;;;;;;19.70;17.70;;;18.30;99.90;;;;;;5094237;28;20171;-79
2021/06/21 02:16:03;;;;;;;17.87;16.17;;;18.40;99.90;;;;;;5094907;28;20227;-80
2021/06/21 02:18:30;;;;;;;17.57;15.77;;;18.30;99.90;;;;;;5094594;28;20183;-79
2021/06/21 02:20:59;;;;;;;18.63;16.90;;;18.20;99.90;;;;;;5094722;28;20580;-79
2021/06/21 02:23:24;;;;;;;19.20;17.30;;;18.20;99.90;;;;;;5093341;28;20175;-80
2021/06/21 02:25:52;;;;;;;20.13;17.17;;;18.30;99.90;;;;;;5094706;28;20199;-79
2021/06/21 02:28:20;;;;;;;19.93;18.03;;;18.20;99.90;;;;;;5097515;28;20164;-79
2021/06/21 02:30:47;;;;;;;19.10;17.20;;;18.30;99.90;;;;;;5115605;28;20190;-80
2021/06/21 02:33:14;;;;;;;18.53;16.83;;;18.30;99.90;;;;;;5101075;28;20200;-79
2021/06/21 02:35:40;;;;;;;19.57;17.77;;;18.30;99.90;;;;;;5097551;28;20164;-79
2021/06/21 02:38:06;;;;;;;17.67;16.00;;;18.30;99.90;;;;;;5094759;28;20156;-79
2021/06/21 02:40:32;;;;;;;17.87;16.17;;;18.30;99.90;;;;;;5094472;28;20199;-79
2021/06/21 02:42:57;;;;;;;18.00;16.30;;;18.30;99.90;;;;;;5093928;28;20646;-79
2021/06/21 02:45:24;;;;;;;18.60;16.53;;;18.30;99.90;;;;;;5093922;28;20177;-80
2021/06/21 02:47:50;;;;;;;17.67;15.87;;;18.20;99.90;;;;;;5096295;28;20171;-80
2021/06/21 02:50:16;;;;;;;17.27;15.57;;;18.20;99.90;;;;;;5108751;28;20145;-79
2021/06/21 02:53:01;;;;;;;17.10;15.60;;;18.10;99.90;;;;;;5114281;28;20191;-79
2021/06/21 02:56:05;;;;;;;16.33;14.73;;;18.20;99.90;;;;;;5099798;28;20156;-77
2021/06/21 02:58:45;;;;;;;17.00;15.40;;;18.10;99.90;;;;;;5095552;28;20178;-78
2021/06/21 03:01:13;;;;;;;17.40;15.80;;;18.10;99.90;;;;;;5093712;28;20293;-78
2021/06/21 03:03:45;;;;;;;16.37;14.77;;;18.20;99.90;;;;;;5093276;28;20185;-78
2021/06/21 03:06:13;;;;;;;15.13;13.73;;;18.10;99.90;;;;;;5093868;28;20183;-79
2021/06/21 03:08:39;;;;;;;16.13;14.63;;;18.10;99.90;;;;;;5093336;28;20536;-78
2021/06/21 03:11:06;;;;;;;14.27;12.97;;;18.00;99.90;;;;;;5093431;28;20175;-79
2021/06/21 03:13:32;;;;;;;14.67;13.37;;;18.00;99.90;;;;;;5094730;28;20172;-79
2021/06/21 03:16:00;;;;;;;14.83;13.43;;;18.00;99.90;;;;;;5093763;28;20174;-78
2021/06/21 03:18:26;;;;;;;13.10;11.87;;;18.00;99.90;;;;;;5094257;28;20196;-77
2021/06/21 03:20:56;;;;;;;14.43;12.97;;;18.00;99.90;;;;;;5094022;28;20211;-79
2021/06/21 03:23:24;;;;;;;12.63;11.53;;;18.00;99.90;;;;;;5093949;28;20176;-80
2021/06/21 03:26:00;;;;;;;11.20;10.13;;;18.00;99.90;;;;;;5095214;28;20179;-80
2021/06/21 03:28:33;;;;;;;12.77;11.47;;;17.90;99.90;;;;;;5093796;28;20182;-79
2021/06/21 03:31:02;;;;;;;12.53;11.43;;;17.90;99.90;;;;;;5095167;28;20250;-78
2021/06/21 03:33:28;;;;;;;11.07;9.97;;;18.00;99.90;;;;;;5092908;28;20654;-79
2021/06/21 03:35:54;;;;;;;9.47;8.63;;;17.90;99.90;;;;;;5094858;28;20168;-79
2021/06/21 03:38:22;;;;;;;8.20;7.37;;;17.70;99.90;;;;;;5094089;28;20232;-78
2021/06/21 03:40:55;;;;;;;8.87;7.90;;;17.60;99.90;;;;;;5093965;28;20235;-79
2021/06/21 03:43:23;;;;;;;6.80;5.80;;;17.70;99.90;;;;;;5098064;28;20613;-79
2021/06/21 03:45:50;;;;;;;7.00;6.17;;;17.50;99.90;;;;;;5098775;28;20572;-78
2021/06/21 03:48:17;;;;;;;6.30;5.70;;;17.50;99.90;;;;;;5097911;28;20179;-78
2021/06/21 03:50:43;;;;;;;7.60;6.80;;;17.50;99.90;;;;;;5098124;28;20298;-78
2021/06/21 03:53:09;;;;;;;7.80;7.10;;;17.50;99.90;;;;;;5098466;28;20199;-78
2021/06/21 03:55:35;;;;;;;8.20;7.40;;;17.60;99.90;;;;;;5098221;28;20168;-79
2021/06/21 03:58:01;;;;;;;8.60;7.77;;;17.50;99.90;;;;;;5097576;28;20171;-79
2021/06/21 04:00:30;;;;;;;8.90;7.93;;;17.40;99.90;;;;;;5097708;28;20567;-80
2021/06/21 04:02:57;;;;;;;8.10;7.40;;;17.40;99.90;;;;;;5097773;28;20163;-77
2021/06/21 04:05:24;;;;;;;6.53;5.93;;;17.30;99.90;;;;;;5097370;28;20172;-78
2021/06/21 04:07:50;;;;;;;6.23;5.63;;;17.20;99.90;;;;;;5097982;28;20242;-77
2021/06/21 04:10:23;;;;;;;8.57;6.00;;;17.20;99.90;;;;;;5096540;28;20159;-78
2021/06/21 04:12:50;;;;;;;6.47;5.80;;;17.10;99.90;;;;;;5098058;28;20196;-77
2021/06/21 04:15:19;;;;;;;6.70;6.10;;;17.10;99.90;;;;;;5097491;28;20244;-78
2021/06/21 04:17:45;;;;;;;7.23;6.53;;;17.00;99.90;;;;;;5096166;28;20197;-77
2021/06/21 04:20:14;;;;;;;8.67;7.87;;;17.10;99.90;;;;;;5095768;28;20200;-77
2021/06/21 04:22:40;;;;;;;7.80;7.10;;;17.10;99.90;;;;;;5097486;28;20314;-77
2021/06/21 04:25:08;;;;;;;8.63;7.77;;;17.20;99.90;;;;;;5096217;28;20530;-76
2021/06/21 04:27:34;;;;;;;8.67;7.87;;;17.00;99.90;;;;;;5097524;28;20186;-77
2021/06/21 04:30:00;;;;;;;9.53;7.90;;;17.10;99.90;;;;;;5098611;28;20180;-77
2021/06/21 04:32:26;;;;;;;7.50;6.77;;;16.90;99.90;;;;;;5100778;28;20163;-77
2021/06/21 04:34:57;;;;;;;8.43;7.33;;;17.10;99.90;;;;;;5097401;28;20168;-77
2021/06/21 04:37:23;;;;;;;8.20;7.40;;;16.80;99.90;;;;;;5097284;28;20164;-78
2021/06/21 04:39:49;;;;;;;8.40;7.07;;;16.80;99.90;;;;;;5097283;28;20665;-76
2021/06/21 04:42:14;;;;;;;7.70;7.00;;;16.80;99.90;;;;;;5097469;28;20168;-77
2021/06/21 04:44:40;;;;;;;7.87;7.17;;;16.70;99.90;;;;;;5095512;28;20190;-78
2021/06/21 04:47:06;;;;;;;8.63;7.60;;;16.70;99.90;;;;;;5096359;28;20654;-79
2021/06/21 04:49:33;;;;;;;9.00;8.10;;;16.70;99.90;;;;;;5097116;28;20277;-77
2021/06/21 04:51:58;;;;;;;8.20;7.43;;;16.70;99.90;;;;;;5095283;28;20199;-76
2021/06/21 04:54:24;;;;;;;9.70;8.27;;;16.70;99.90;;;;;;5097541;28;20183;-77
2021/06/21 04:56:50;;;;;;;8.07;7.33;;;16.60;99.90;;;;;;5097357;28;20179;-78
2021/06/21 04:59:15;;;;;;;8.50;7.70;;;16.60;99.90;;;;;;5096928;28;20557;-77
2021/06/21 05:01:41;;;;;;;8.70;7.90;;;16.60;99.90;;;;;;5094358;28;20219;-78
2021/06/21 05:04:07;;;;;;;9.03;8.13;;;16.60;99.90;;;;;;5096656;28;20168;-77
2021/06/21 05:06:36;;;;;;;9.40;8.60;;;16.50;99.90;;;;;;5095407;28;20652;-77
2021/06/21 05:09:04;;;;;;;9.57;8.67;;;16.60;99.90;;;;;;5097328;28;20175;-76
2021/06/21 05:11:30;;;;;;;9.07;8.27;;;16.60;99.90;;;;;;5094858;28;20171;-79
2021/06/21 05:13:56;;;;;;;9.73;8.73;;;16.50;99.90;;;;;;5096408;28;20202;-77
2021/06/21 05:16:22;;;;;;;9.30;8.40;;;16.40;99.90;;;;;;5097193;28;20199;-79
2021/06/21 05:18:48;;;;;;;9.47;8.57;;;16.50;99.90;;;;;;5096847;28;20170;-77
2021/06/21 05:21:13;;;;;;;8.53;7.63;;;16.40;99.90;;;;;;5095674;28;20319;-77
2021/06/21 05:23:39;;;;;;;8.83;8.03;;;16.40;99.90;;;;;;5096386;28;20164;-78
2021/06/21 05:26:05;;;;;;;8.83;7.93;;;16.40;99.90;;;;;;5104487;28;20182;-77
2021/06/21 05:28:31;;;;;;;8.40;7.60;;;16.50;99.90;;;;;;5100593;28;20171;-78
2021/06/21 05:30:57;;;;;;;8.27;7.47;;;16.40;99.90;;;;;;5095933;28;20174;-77
2021/06/21 05:33:22;;;;;;;8.67;7.83;;;16.40;99.90;;;;;;5095408;28;20195;-77
2021/06/21 05:35:48;;;;;;;8.80;7.77;;;16.40;99.90;;;;;;5096112;28;20172;-78
2021/06/21 05:38:14;;;;;;;7.73;7.00;;;16.50;99.90;;;;;;5095167;28;20163;-78
2021/06/21 05:40:39;;;;;;;8.07;7.27;;;16.50;99.90;;;;;;5096375;28;20228;-79
2021/06/21 05:43:05;;;;;;;7.93;7.13;;;16.50;99.90;;;;;;5097418;28;20190;-81
2021/06/21 05:45:30;;;;;;;7.63;6.83;;;16.40;99.90;;;;;;5098566;28;20194;-78
2021/06/21 05:47:56;;;;;;;7.07;6.47;;;16.40;99.90;;;;;;5096138;28;20225;-77
2021/06/21 05:50:22;;;;;;;8.67;6.67;;;16.40;99.90;;;;;;5096070;28;20645;-78
2021/06/21 05:52:49;;;;;;;7.13;6.43;;;16.40;99.90;;;;;;5094568;28;20702;-78
2021/06/21 05:55:18;;;;;;;6.80;6.20;;;16.30;99.90;;;;;;5093982;28;20210;-79
2021/06/21 05:57:46;;;;;;;8.47;5.87;;;16.40;99.90;;;;;;5095083;28;20171;-79
2021/06/21 06:00:13;;;;;;;6.10;5.50;;;16.40;99.90;;;;;;5095688;28;20203;-79
2021/06/21 06:02:39;;;;;;;6.40;5.70;;;16.30;99.90;;;;;;5095065;28;20183;-79
2021/06/21 06:05:06;;;;;;;6.20;5.60;;;16.40;99.90;;;;;;5095289;28;20181;-79
2021/06/21 06:07:33;;;;;;;8.40;4.97;;;16.40;99.90;;;;;;5094603;28;20636;-75
2021/06/21 06:09:59;;;;;;;5.67;5.07;;;16.60;99.90;;;;;;5093774;28;20171;-75
2021/06/21 06:12:25;;;;;;;6.70;5.10;;;16.70;99.90;;;;;;5094443;28;20190;-74
2021/06/21 06:14:51;;;;;;;5.07;4.57;;;16.70;99.90;;;;;;5095077;28;20163;-76
2021/06/21 06:17:17;;;;;;;9.07;6.60;;;17.00;99.90;;;;;;5093558;28;20605;-77
2021/06/21 06:19:43;;;;;;;4.13;3.73;;;17.20;99.90;;;;;;5094825;28;20164;-78
2021/06/21 06:22:11;;;;;;;5.10;4.60;;;17.30;99.90;;;;;;5093959;28;20253;-77
2021/06/21 06:24:37;;;;;;;4.83;4.40;;;17.50;99.90;;;;;;5094294;28;20172;-77
2021/06/21 06:27:03;;;;;;;5.63;4.40;;;17.60;99.90;;;;;;5096004;28;20175;-82
2021/06/21 06:29:30;;;;;;;6.43;4.60;;;17.40;99.90;;;;;;5094983;28;20196;-80
2021/06/21 06:31:58;;;;;;;7.03;5.00;;;17.40;99.90;;;;;;5077958;28;20262;-80
2021/06/21 06:34:24;;;;;;;6.50;4.53;;;17.30;99.90;;;;;;5094863;28;20576;-80
2021/06/21 06:36:50;;;;;;;6.70;4.63;;;17.10;99.90;;;;;;5093755;28;20243;-81
2021/06/21 06:39:16;;;;;;;4.70;4.13;;;17.00;99.90;;;;;;5094487;28;20199;-79
2021/06/21 06:41:42;;;;;;;7.07;5.63;;;16.80;99.90;;;;;;5103555;28;20241;-81
2021/06/21 06:44:10;;;;;;;6.37;5.40;;;16.90;99.90;;;;;;5099107;28;20659;-79
2021/06/21 06:46:36;;;;;;;6.77;6.07;;;16.60;99.90;;;;;;5115812;27;20177;-81
2021/06/21 06:49:03;;;;;;;6.97;6.27;;;16.70;99.90;;;;;;5104960;27;20187;-80
2021/06/21 06:51:34;;;;;;;7.03;6.10;;;16.60;99.90;;;;;;5093364;28;20203;-80
2021/06/21 06:54:11;;;;;;;7.10;6.37;;;16.50;99.90;;;;;;5109842;28;20171;-79
2021/06/21 06:59:23;;;;;;;9.50;7.00;;;16.50;99.90;;;;;;5131338;28;20213;-81
2021/06/21 07:01:48;;;;;;;7.50;6.67;;;16.30;99.90;;;;;;5132109;28;20203;-80
2021/06/21 07:04:14;;;;;;;7.90;7.00;;;16.40;99.90;;;;;;5134218;28;20588;-79
2021/06/21 07:06:40;;;;;;;7.20;5.60;;;16.40;99.90;;;;;;5105057;28;20175;-80
2021/06/21 07:09:06;;;;;;;6.57;5.87;;;16.20;99.90;;;;;;5094837;28;20203;-80
2021/06/21 07:11:36;;;;;;;6.60;5.90;;;16.20;99.90;;;;;;5095914;28;20180;-80
2021/06/21 07:14:05;;;;;;;6.73;6.00;;;16.10;99.90;;;;;;5099239;28;20308;-80
2021/06/21 07:16:33;;;;;;;9.17;7.47;;;16.00;99.90;;;;;;5101788;28;20169;-82
2021/06/21 07:18:59;;;;;;;7.77;7.07;;;16.00;99.90;;;;;;5116918;28;20168;-80
2021/06/21 07:21:25;;;;;;;7.03;5.97;;;16.00;99.90;;;;;;5116520;28;20214;-81
2021/06/21 07:23:50;;;;;;;6.53;5.80;;;16.10;99.90;;;;;;5103633;28;20586;-80
2021/06/21 07:26:16;;;;;;;3.90;3.50;;;16.20;99.90;;;;;;5095815;28;20176;-81
2021/06/21 07:28:42;;;;;;;4.30;3.90;;;16.20;99.90;;;;;;5093327;28;20173;-82
2021/06/21 07:31:08;;;;;;;2.57;2.37;;;16.40;99.90;;;;;;5094922;28;20194;-80
2021/06/21 07:33:34;;;;;;;5.37;2.97;;;16.40;99.90;;;;;;5095790;28;20209;-79
2021/06/21 07:36:00;;;;;;;2.87;2.20;;;16.40;99.90;;;;;;5097816;28;20198;-79
2021/06/21 07:38:26;;;;;;;3.33;2.00;;;16.20;99.90;;;;;;5105504;28;20174;-77
2021/06/21 07:40:52;;;;;;;3.23;2.10;;;16.20;99.90;;;;;;5101410;28;20199;-79
2021/06/21 07:43:17;;;;;;;2.67;1.97;;;16.10;99.90;;;;;;5094791;28;20532;-77
2021/06/21 07:45:45;;;;;;;2.47;1.97;;;16.00;99.90;;;;;;5112393;28;20235;-79
2021/06/21 07:48:11;;;;;;;2.63;2.13;;;16.00;99.90;;;;;;5109310;28;20156;-80
2021/06/21 07:50:37;;;;;;;3.10;2.60;;;16.10;99.90;;;;;;5083427;28;20207;-79
2021/06/21 07:53:06;;;;;;;3.30;2.60;;;16.00;99.90;;;;;;5081975;28;20183;-77
2021/06/21 07:55:31;;;;;;;3.10;2.33;;;16.10;99.90;;;;;;5084623;28;20185;-78
2021/06/21 07:57:57;;;;;;;3.00;2.40;;;16.10;99.90;;;;;;5086151;28;20183;-79
2021/06/21 08:00:24;;;;;;;4.47;2.70;;;16.10;99.90;;;;;;5087383;28;20204;-82
2021/06/21 08:02:54;;;;;;;3.57;2.20;;;16.10;99.90;;;;;;5081713;28;20651;-81
2021/06/21 08:05:22;;;;;;;3.40;3.00;;;16.10;99.90;;;;;;5083255;28;20156;-78
2021/06/21 08:07:48;;;;;;;2.87;2.50;;;16.20;99.90;;;;;;5076208;28;20169;-78
2021/06/21 08:10:15;;;;;;;4.03;2.60;;;16.20;99.90;;;;;;5092629;28;20637;-80
2021/06/21 08:12:42;;;;;;;4.63;2.73;;;16.20;99.90;;;;;;5116682;28;20254;-78
2021/06/21 08:15:11;;;;;;;3.67;2.97;;;16.30;99.90;;;;;;5102276;28;20181;-77
2021/06/21 08:17:38;;;;;;;5.23;3.07;;;16.30;99.90;;;;;;5097858;28;20182;-78
2021/06/21 08:20:06;;;;;;;3.80;3.37;;;16.30;99.90;;;;;;5099814;28;20187;-78
2021/06/21 08:22:31;;;;;;;4.80;3.90;;;16.50;99.90;;;;;;5107137;28;20175;-78
2021/06/21 08:24:57;;;;;;;4.10;3.70;;;16.50;99.90;;;;;;5095126;28;20458;-78
2021/06/21 08:27:23;;;;;;;3.93;3.17;;;16.60;99.90;;;;;;5096237;28;20164;-78
2021/06/21 08:29:48;;;;;;;4.23;3.63;;;16.60;99.90;;;;;;5097886;28;20650;-77
2021/06/21 08:32:14;;;;;;;4.97;3.80;;;16.50;99.90;;;;;;5094332;28;20258;-80
2021/06/21 08:34:40;;;;;;;5.10;4.37;;;16.50;99.90;;;;;;5088247;28;20712;-81
2021/06/21 08:37:06;;;;;;;4.33;3.87;;;16.60;99.90;;;;;;5085495;28;20186;-78
2021/06/21 08:39:32;;;;;;;4.37;3.40;;;16.60;99.90;;;;;;5083170;28;20184;-78
2021/06/21 08:41:58;;;;;;;3.70;3.30;;;16.70;99.90;;;;;;5077657;28;20215;-80
2021/06/21 08:44:24;;;;;;;4.23;3.23;;;16.60;99.90;;;;;;5095347;28;20554;-77
2021/06/21 08:46:51;;;;;;;3.73;3.33;;;16.70;99.90;;;;;;5116556;28;20175;-76
2021/06/21 08:49:20;;;;;;;5.97;3.40;;;16.70;99.90;;;;;;5118728;28;20235;-78
2021/06/21 08:51:50;;;;;;;4.10;3.70;;;16.70;99.90;;;;;;5118954;28;20650;-78
2021/06/21 08:54:16;;;;;;;5.17;3.73;;;16.70;99.90;;;;;;5116446;28;20529;-77
2021/06/21 08:56:41;;;;;;;5.53;3.93;;;16.70;99.90;;;;;;5116915;28;20256;-78
2021/06/21 08:59:08;;;;;;;4.20;3.80;;;16.70;99.90;;;;;;5086277;28;20319;-79
2021/06/21 09:01:38;;;;;;;4.80;3.53;;;16.60;99.90;;;;;;5077878;28;20208;-80
2021/06/21 09:04:05;;;;;;;4.60;3.90;;;16.70;99.90;;;;;;5092135;28;20164;-79
2021/06/21 09:06:40;;;;;;;6.83;3.87;;;16.80;99.90;;;;;;5096431;28;20557;-76
2021/06/21 09:09:07;;;;;;;4.93;4.20;;;16.90;99.90;;;;;;5096021;28;20186;-77
2021/06/21 09:11:49;;;;;;;5.23;4.10;;;16.90;99.90;;;;;;5097271;28;20179;-77
2021/06/21 09:14:29;;;;;;;5.20;4.70;;;16.80;99.90;;;;;;5097315;28;20168;-79
2021/06/21 09:17:01;;;;;;;5.30;4.70;;;16.80;99.90;;;;;;5097580;28;20201;-77
2021/06/21 09:19:28;;;;;;;5.73;4.00;;;16.90;99.90;;;;;;5097818;28;20502;-78
2021/06/21 09:21:54;;;;;;;5.47;4.07;;;17.00;99.90;;;;;;5097313;28;20316;-78
2021/06/21 09:24:22;;;;;;;5.50;4.60;;;16.90;99.90;;;;;;5095549;28;20171;-79
2021/06/21 09:26:57;;;;;;;4.90;4.40;;;16.80;99.90;;;;;;5097150;28;20744;-79
2021/06/21 09:29:38;;;;;;;6.17;4.67;;;16.80;99.90;;;;;;5097664;28;20170;-76
2021/06/21 09:32:04;;;;;;;7.53;5.47;;;17.00;99.90;;;;;;5097421;28;20167;-79
2021/06/21 09:34:30;;;;;;;5.00;3.97;;;17.10;99.90;;;;;;5098009;28;20216;-79
2021/06/21 09:37:11;;;;;;;5.03;3.80;;;17.20;99.90;;;;;;5096008;28;20534;-79
2021/06/21 09:39:44;;;;;;;6.80;4.43;;;17.20;99.90;;;;;;5093877;28;20179;-80
2021/06/21 09:42:26;;;;;;;5.17;4.67;;;17.10;99.90;;;;;;5095497;28;20695;-79
2021/06/21 09:44:58;;;;;;;7.30;4.90;;;17.20;99.90;;;;;;5094860;28;20218;-80
2021/06/21 09:47:26;;;;;;;9.57;5.30;;;17.10;99.90;;;;;;5096430;28;20203;-80
2021/06/21 09:50:01;;;;;;;5.80;4.57;;;17.20;99.90;;;;;;5104543;28;20177;-77
2021/06/21 09:52:34;;;;;;;8.30;4.87;;;17.30;99.90;;;;;;5077490;28;20223;-78
2021/06/21 09:55:09;;;;;;;6.67;4.30;;;17.20;99.90;;;;;;5088546;28;20168;-78
2021/06/21 09:57:36;;;;;;;5.00;4.30;;;17.30;99.90;;;;;;5089504;28;20179;-81
2021/06/21 10:00:08;;;;;;;5.30;4.80;;;17.30;99.90;;;;;;5094394;28;20178;-80
2021/06/21 10:02:34;;;;;;;6.73;4.73;;;17.40;99.90;;;;;;5074861;28;20176;-79
2021/06/21 10:05:00;;;;;;;6.37;4.83;;;17.50;99.90;;;;;;5073577;28;20725;-80
2021/06/21 10:07:34;;;;;;;8.00;5.30;;;17.60;99.90;;;;;;5085898;28;20226;-78
2021/06/21 10:10:05;;;;;;;8.57;5.30;;;17.50;99.90;;;;;;5074324;28;20160;-80
2021/06/21 10:12:31;;;;;;;5.93;5.33;;;17.50;99.90;;;;;;5076888;28;20174;-78
2021/06/21 10:14:57;;;;;;;5.60;5.10;;;17.30;99.90;;;;;;5094827;28;20172;-80
2021/06/21 10:17:24;;;;;;;8.50;5.37;;;17.30;99.90;;;;;;5096987;28;20167;-80
2021/06/21 10:19:49;;;;;;;5.87;5.27;;;17.20;99.90;;;;;;5095609;28;20243;-80
2021/06/21 10:22:19;;;;;;;5.90;5.30;;;17.20;99.90;;;;;;5096688;28;20271;-81
2021/06/21 10:24:46;;;;;;;5.90;5.33;;;17.20;99.90;;;;;;5094851;28;20179;-80
2021/06/21 10:27:15;;;;;;;5.73;5.20;;;17.10;99.90;;;;;;5090643;28;20176;-81
2021/06/21 10:29:42;;;;;;;6.07;5.47;;;17.10;99.90;;;;;;5089778;28;20213;-80
2021/06/21 10:32:08;;;;;;;6.70;5.93;;;17.20;99.90;;;;;;5074464;28;20168;-80
2021/06/21 10:34:35;;;;;;;7.10;6.40;;;17.10;99.90;;;;;;5075586;28;20169;-83
2021/06/21 10:37:02;;;;;;;6.40;5.70;;;17.10;99.90;;;;;;5080330;28;20173;-79
2021/06/21 10:39:30;;;;;;;6.90;6.20;;;17.10;99.90;;;;;;5084857;28;20647;-81
2021/06/21 10:42:07;;;;;;;7.33;6.30;;;17.10;99.90;;;;;;5082210;28;20300;-82
2021/06/21 10:44:40;;;;;;;7.47;6.40;;;17.10;99.90;;;;;;5106713;28;20194;-80
2021/06/21 10:47:23;;;;;;;7.37;6.67;;;17.10;99.90;;;;;;5099198;28;20183;-81
2021/06/21 10:50:16;;;;;;;8.03;7.30;;;17.00;99.90;;;;;;5095876;28;20178;-83
2021/06/21 10:52:54;;;;;;;9.63;8.67;;;17.00;99.90;;;;;;5095353;28;20678;-80
2021/06/21 10:55:26;;;;;;;10.40;9.40;;;17.10;99.90;;;;;;5094678;28;20159;-81
2021/06/21 10:57:57;;;;;;;10.67;9.73;;;17.30;99.90;;;;;;5096414;28;20202;-80
2021/06/21 11:00:32;;;;;;;10.20;9.20;;;17.40;99.90;;;;;;5095367;28;20227;-81
2021/06/21 11:02:58;;;;;;;9.07;7.80;;;17.60;99.90;;;;;;5098371;28;20198;-84
2021/06/21 11:05:41;;;;;;;7.80;7.00;;;17.60;99.90;;;;;;5095440;28;20176;-83
2021/06/21 11:08:19;;;;;;;7.23;6.40;;;17.60;99.90;;;;;;5096591;28;20176;-83
2021/06/21 11:10:47;;;;;;;8.83;7.57;;;17.60;99.90;;;;;;5097214;28;20175;-80
2021/06/21 11:13:34;;;;;;;8.00;6.97;;;17.40;99.90;;;;;;5093822;28;20175;-81
2021/06/21 11:16:24;;;;;;;7.77;6.97;;;17.20;99.90;;;;;;5095721;28;20172;-80
2021/06/21 11:19:21;;;;;;;8.57;7.80;;;17.50;99.90;;;;;;5097221;28;20259;-80
2021/06/21 11:21:57;;;;;;;8.97;8.17;;;17.50;99.90;;;;;;5094263;28;20219;-80
2021/06/21 11:24:42;;;;;;;8.13;7.30;;;17.60;99.90;;;;;;5099593;28;20173;-79
2021/06/21 11:27:21;;;;;;;11.13;10.03;;;17.70;99.90;;;;;;5094662;28;20224;-79
2021/06/21 11:29:53;;;;;;;11.77;10.70;;;17.60;99.90;;;;;;5097266;28;20167;-81
2021/06/21 11:32:20;;;;;;;11.60;10.50;;;17.70;99.90;;;;;;5094864;28;20171;-81
2021/06/21 11:35:00;;;;;;;11.60;10.50;;;17.80;99.90;;;;;;5092907;28;20280;-79
2021/06/21 11:37:38;;;;;;;9.73;8.87;;;17.60;99.90;;;;;;5096971;28;20220;-80
2021/06/21 11:40:19;;;;;;;10.07;9.17;;;17.50;99.90;;;;;;5094440;28;20168;-80
2021/06/21 11:43:00;;;;;;;9.40;8.50;;;17.50;99.90;;;;;;5094087;28;20167;-80
2021/06/21 11:45:55;;;;;;;11.20;10.03;;;17.50;99.90;;;;;;5100019;28;20191;-81
2021/06/21 11:48:38;;;;;;;11.37;10.27;;;17.40;99.90;;;;;;5111950;28;20183;-80
2021/06/21 11:51:12;;;;;;;10.60;9.57;;;17.40;99.90;;;;;;5095282;28;20651;-82
2021/06/21 11:53:49;;;;;;;10.00;9.10;;;17.30;99.90;;;;;;5093933;28;20171;-80
2021/06/21 11:56:23;;;;;;;11.50;9.93;;;17.30;99.90;;;;;;5092389;28;20266;-82
2021/06/21 11:58:50;;;;;;;10.57;9.57;;;17.30;99.90;;;;;;5093965;28;20175;-80
2021/06/21 12:01:17;;;;;;;11.37;10.37;;;17.30;99.90;;;;;;5093087;28;20183;-82
2021/06/21 12:03:44;;;;;;;9.97;8.97;;;17.40;99.90;;;;;;5097488;28;20164;-79
2021/06/21 12:06:18;;;;;;;9.97;8.97;;;17.20;99.90;;;;;;5098776;28;20616;-81
2021/06/21 12:08:45;;;;;;;10.13;9.17;;;17.10;99.90;;;;;;5098951;28;20172;-81
2021/06/21 12:11:22;;;;;;;9.87;8.97;;;17.20;99.90;;;;;;5097898;28;20184;-81
2021/06/21 12:14:18;;;;;;;10.00;8.63;;;17.20;99.90;;;;;;5095542;28;20182;-79
2021/06/21 12:16:44;;;;;;;9.90;8.90;;;17.20;99.90;;;;;;5106349;28;20267;-78
2021/06/21 12:19:09;;;;;;;10.90;9.90;;;17.30;99.90;;;;;;5117473;28;20730;-79
2021/06/21 12:21:39;;;;;;;11.73;10.60;;;17.40;99.90;;;;;;5117813;28;20712;-79
2021/06/21 12:24:20;;;;;;;11.03;9.93;;;17.50;99.90;;;;;;5108490;28;20255;-81
2021/06/21 12:26:47;;;;;;;10.57;9.67;;;17.40;99.90;;;;;;5107300;28;20178;-80
2021/06/21 12:29:21;;;;;;;11.10;10.03;;;17.40;99.90;;;;;;5121550;28;20333;-79
2021/06/21 12:31:54;;;;;;;10.80;9.90;;;17.30;99.90;;;;;;5120588;28;20213;-80
2021/06/21 12:34:38;;;;;;;10.63;9.60;;;17.30;99.90;;;;;;5106326;28;20280;-80
2021/06/21 12:37:20;;;;;;;11.40;10.30;;;17.30;99.90;;;;;;5079519;28;20176;-80
2021/06/21 12:39:49;;;;;;;11.43;10.33;;;17.40;99.90;;;;;;5090793;28;20172;-79
2021/06/21 12:42:16;;;;;;;9.83;8.93;;;17.40;99.90;;;;;;5086461;28;20731;-82
2021/06/21 12:44:44;;;;;;;10.97;9.93;;;17.30;99.90;;;;;;5095152;28;20651;-80
2021/06/21 12:47:36;;;;;;;11.53;10.43;;;17.50;99.90;;;;;;5084057;28;20176;-81
2021/06/21 12:50:07;;;;;;;11.97;10.63;;;17.60;99.90;;;;;;5073639;28;20644;-81
2021/06/21 12:52:34;;;;;;;10.10;9.03;;;17.80;99.90;;;;;;5087259;28;20196;-81
2021/06/21 12:55:06;;;;;;;9.33;8.43;;;17.80;99.90;;;;;;5093941;28;20566;-81